createdAt,value
2022-08-05T00:01:27.767Z,4.88
2022-08-05T00:03:57.029Z,5.85
2022-08-05T00:06:28.916Z,3.97
2022-08-05T00:08:56.019Z,2.53
2022-08-05T00:11:30.262Z,4.63
2022-08-05T00:14:02.481Z,4.05
2022-08-05T00:16:53.746Z,2.58
2022-08-05T00:19:22.687Z,4.47
2022-08-05T00:21:50.122Z,2.97
2022-08-05T00:24:19.351Z,5.85
2022-08-05T00:26:52.883Z,3.05
2022-08-05T00:29:22.723Z,2.58
2022-08-05T00:32:10.530Z,4.20
2022-08-05T00:34:56.127Z,3.13
2022-08-05T00:37:10.923Z,2.42
2022-08-05T00:39:57.317Z,2.50
2022-08-05T00:42:37.138Z,4.47
2022-08-05T00:45:06.626Z,4.28
2022-08-05T00:47:56.905Z,2.53
2022-08-05T00:50:25.121Z,5.75
2022-08-05T00:52:55.002Z,4.60
2022-08-05T00:55:22.385Z,4.13
2022-08-05T00:57:55.691Z,3.97
2022-08-05T01:00:29.743Z,4.45
2022-08-05T01:02:58.146Z,2.30
2022-08-05T01:05:27.474Z,2.58
2022-08-05T01:08:40.996Z,4.75
2022-08-05T01:10:51.820Z,3.00
2022-08-05T01:13:57.314Z,5.72
2022-08-05T01:16:34.929Z,5.15
2022-08-05T01:19:14.322Z,4.03
2022-08-05T01:21:58.387Z,2.60
2022-08-05T01:24:52.496Z,3.25
2022-08-05T01:27:50.477Z,6.72
2022-08-05T01:30:34.007Z,5.57
2022-08-05T01:33:08.510Z,3.50
2022-08-05T01:35:52.214Z,6.88
2022-08-05T01:38:27.241Z,4.63
2022-08-05T01:41:01.921Z,7.85
2022-08-05T01:43:31.192Z,3.35
2022-08-05T01:45:58.310Z,3.63
2022-08-05T01:48:35.749Z,4.80
2022-08-05T01:51:12.533Z,7.25
2022-08-05T01:53:55.088Z,3.53
2022-08-05T01:58:10.034Z,4.05
2022-08-05T01:59:23.142Z,5.45
2022-08-05T02:01:51.521Z,3.90
2022-08-05T02:04:24.129Z,3.53
2022-08-05T02:06:52.708Z,5.20
2022-08-05T02:09:20.553Z,2.75
2022-08-05T02:12:06.062Z,2.75
2022-08-05T02:14:53.511Z,6.15
2022-08-05T02:18:27.948Z,5.13
2022-08-05T02:20:26.245Z,4.15
2022-08-05T02:23:03.086Z,2.83
2022-08-05T02:25:49.092Z,3.70
2022-08-05T02:28:28.929Z,2.75
2022-08-05T02:31:04.040Z,4.30
2022-08-05T02:33:38.825Z,6.03
2022-08-05T02:36:13.660Z,2.90
2022-08-05T02:38:53.098Z,2.75
2022-08-05T02:41:22.894Z,5.85
2022-08-05T02:44:02.405Z,4.72
2022-08-05T02:46:35.946Z,5.10
2022-08-05T02:49:20.304Z,2.40
2022-08-05T02:52:01.131Z,2.78
2022-08-05T02:54:34.782Z,2.35
2022-08-05T02:57:10.235Z,3.25
2022-08-05T02:59:54.935Z,2.08
2022-08-05T03:02:31.716Z,3.92
2022-08-05T03:04:59.801Z,4.53
2022-08-05T03:08:00.979Z,4.07
2022-08-05T03:10:22.002Z,4.25
2022-08-05T03:12:54.119Z,4.85
2022-08-05T03:15:23.834Z,3.08
2022-08-05T03:17:55.593Z,3.38
2022-08-05T03:20:24.297Z,3.78
2022-08-05T03:22:52.158Z,3.88
2022-08-05T03:25:32.442Z,4.03
2022-08-05T03:28:03.108Z,2.55
2022-08-05T03:30:34.798Z,6.50
2022-08-05T03:33:04.130Z,4.55
2022-08-05T03:35:40.731Z,2.72
2022-08-05T03:38:11.524Z,7.05
2022-08-05T03:40:45.040Z,4.30
2022-08-05T03:43:58.434Z,6.20
2022-08-05T03:46:01.605Z,2.63
2022-08-05T03:48:29.048Z,2.40
2022-08-05T03:52:37.589Z,2.63
2022-08-05T03:55:51.035Z,4.60
2022-08-05T03:57:00.864Z,2.80
2022-08-05T03:59:54.894Z,3.35
2022-08-05T04:02:39.035Z,5.47
2022-08-05T04:05:12.957Z,4.38
2022-08-05T04:07:57.760Z,4.32
2022-08-05T04:10:27.657Z,4.78
2022-08-05T04:12:59.054Z,7.43
2022-08-05T04:15:33.376Z,5.90
2022-08-05T04:18:06.741Z,3.47
2022-08-05T04:20:34.481Z,3.03
2022-08-05T04:23:01.445Z,3.35
2022-08-05T04:25:56.856Z,9.73
2022-08-05T04:28:15.040Z,3.75
2022-08-05T04:30:43.646Z,4.63
2022-08-05T04:33:10.804Z,4.60
2022-08-05T04:36:09.492Z,4.35
2022-08-05T04:38:39.215Z,4.40
2022-08-05T04:41:07.321Z,4.30
2022-08-05T04:43:36.387Z,3.35
2022-08-05T04:46:05.106Z,2.58
2022-08-05T04:48:31.910Z,3.15
2022-08-05T04:51:01.439Z,8.27
2022-08-05T04:53:29.195Z,2.90
2022-08-05T04:56:32.203Z,3.92
2022-08-05T04:58:46.789Z,7.47
2022-08-05T05:01:13.710Z,6.28
2022-08-05T05:03:42.222Z,3.72
2022-08-05T05:06:38.918Z,3.35
2022-08-05T05:08:59.853Z,4.47
2022-08-05T05:11:41.527Z,3.55
2022-08-05T05:14:16.039Z,4.22
2022-08-05T05:16:43.009Z,6.65
2022-08-05T05:19:19.421Z,4.60
2022-08-05T05:21:50.351Z,4.22
2022-08-05T05:24:22.323Z,4.78
2022-08-05T05:27:08.857Z,3.90
2022-08-05T05:30:03.958Z,3.83
2022-08-05T05:32:23.307Z,4.70
2022-08-05T05:34:52.492Z,5.38
2022-08-05T05:37:19.207Z,3.47
2022-08-05T05:39:45.951Z,4.72
2022-08-05T05:42:12.630Z,4.03
2022-08-05T05:44:43.126Z,5.28
2022-08-05T05:47:30.237Z,7.07
2022-08-05T05:50:01.826Z,4.80
2022-08-05T05:52:34.602Z,5.43
2022-08-05T05:55:13.269Z,4.60
2022-08-05T05:57:51.950Z,4.88
2022-08-05T06:00:21.048Z,7.03
2022-08-05T06:02:54.408Z,4.80
2022-08-05T06:05:21.379Z,5.93
2022-08-05T06:07:57.901Z,5.25
2022-08-05T06:10:29.460Z,10.25
2022-08-05T06:13:03.939Z,6.40
2022-08-05T06:16:28.927Z,6.10
2022-08-05T06:18:17.083Z,7.15
2022-08-05T06:20:47.712Z,6.30
2022-08-05T06:23:14.521Z,5.80
2022-08-05T06:26:12.684Z,4.50
2022-08-05T06:28:28.586Z,8.02
2022-08-05T06:30:55.649Z,6.70
2022-08-05T06:33:33.395Z,6.28
2022-08-05T06:36:10.416Z,5.63
2022-08-05T06:38:37.305Z,5.95
2022-08-05T06:41:04.894Z,5.80
2022-08-05T06:43:59.723Z,12.55
2022-08-05T06:46:18.224Z,9.13
2022-08-05T06:48:55.841Z,7.38
2022-08-05T06:51:29.980Z,8.57
2022-08-05T06:54:01.945Z,5.75
2022-08-05T06:56:29.984Z,5.30
2022-08-05T06:58:59.999Z,4.43
2022-08-05T07:01:27.608Z,7.57
2022-08-05T07:04:01.461Z,6.95
2022-08-05T07:06:29.172Z,6.38
2022-08-05T07:08:55.942Z,5.40
2022-08-05T07:11:27.971Z,4.43
2022-08-05T07:14:19.975Z,4.90
2022-08-05T07:17:59.112Z,5.35
2022-08-05T07:22:34.003Z,5.10
2022-08-05T07:25:23.417Z,4.72
2022-08-05T07:27:58.239Z,5.05
2022-08-05T07:30:32.715Z,8.63
2022-08-05T07:33:01.501Z,6.55
2022-08-05T07:36:04.263Z,8.43
2022-08-05T07:38:25.375Z,9.45
2022-08-05T07:41:16.506Z,7.00
2022-08-05T07:43:50.556Z,5.43
2022-08-05T07:46:25.430Z,6.25
2022-08-05T07:49:03.075Z,7.80
2022-08-05T07:51:40.618Z,7.55
2022-08-05T07:54:15.222Z,9.48
2022-08-05T07:57:02.613Z,7.35
2022-08-05T07:59:38.871Z,6.15
2022-08-05T08:02:17.098Z,8.98
2022-08-05T08:04:46.627Z,10.20
2022-08-05T08:07:15.008Z,7.57
2022-08-05T08:09:42.341Z,10.15
2022-08-05T08:12:20.960Z,6.40
2022-08-05T08:14:55.818Z,10.07
2022-08-05T08:17:23.578Z,6.43
2022-08-05T08:20:22.308Z,10.50
2022-08-05T08:22:37.906Z,9.70
2022-08-05T08:25:16.343Z,9.38
2022-08-05T08:27:47.673Z,6.78
2022-08-05T08:30:29.782Z,6.53
2022-08-05T08:33:08.549Z,6.65
2022-08-05T08:35:41.310Z,6.60
2022-08-05T08:38:36.060Z,8.93
2022-08-05T08:41:08.668Z,6.50
2022-08-05T08:45:20.238Z,7.03
2022-08-05T08:46:24.450Z,6.40
2022-08-05T08:49:06.368Z,8.98
2022-08-05T08:52:02.821Z,6.55
2022-08-05T08:54:30.820Z,6.10
2022-08-05T08:56:59.583Z,5.07
2022-08-05T08:59:27.661Z,5.95
2022-08-05T09:02:01.252Z,3.63
2022-08-05T09:04:30.688Z,5.97
2022-08-05T09:06:58.311Z,5.72
2022-08-05T09:09:26.005Z,3.58
2022-08-05T09:12:04.633Z,4.40
2022-08-05T09:14:58.725Z,4.50
2022-08-05T09:17:42.898Z,4.40
2022-08-05T09:23:21.802Z,5.97
2022-08-05T09:26:01.064Z,9.18
2022-08-05T09:28:33.204Z,5.03
2022-08-05T09:31:22.093Z,3.85
2022-08-05T09:33:59.325Z,3.53
2022-08-05T09:36:55.630Z,7.18
2022-08-05T09:39:27.635Z,4.32
2022-08-05T09:42:08.578Z,4.10
2022-08-05T09:44:50.591Z,5.30
2022-08-05T09:47:20.849Z,4.38
2022-08-05T09:50:01.778Z,3.72
2022-08-05T09:52:36.017Z,3.22
2022-08-05T09:55:56.794Z,2.63
2022-08-05T09:57:59.962Z,3.25
2022-08-05T10:00:27.726Z,3.00
2022-08-05T10:02:58.608Z,3.22
2022-08-05T10:05:28.195Z,4.18
2022-08-05T10:08:10.962Z,1.40
2022-08-05T10:10:54.274Z,3.20
2022-08-05T10:13:47.670Z,3.42
2022-08-05T10:16:37.781Z,2.10
2022-08-05T10:19:10.132Z,1.73
2022-08-05T10:21:40.271Z,1.50
2022-08-05T10:24:10.661Z,1.65
2022-08-05T10:26:48.905Z,1.48
2022-08-05T10:30:05.700Z,1.55
2022-08-05T10:34:51.813Z,2.50
2022-08-05T10:37:19.058Z,1.10
2022-08-05T10:39:59.525Z,1.83
2022-08-05T10:42:43.908Z,1.80
2022-08-05T10:45:21.490Z,0.75
2022-08-05T10:48:29.731Z,2.15
2022-08-05T10:51:03.414Z,1.90
2022-08-05T10:54:02.032Z,1.30
2022-08-05T10:56:49.299Z,1.08
2022-08-05T11:00:03.740Z,1.15
2022-08-05T11:02:38.209Z,2.22
2022-08-05T11:05:09.531Z,0.60
2022-08-05T11:08:01.233Z,0.82
2022-08-05T11:10:30.421Z,1.13
2022-08-05T11:12:59.443Z,1.80
2022-08-05T11:16:00.894Z,0.88
2022-08-05T11:18:32.430Z,1.02
2022-08-05T11:21:00.024Z,3.60
2022-08-05T11:24:04.503Z,0.57
2022-08-05T11:26:32.367Z,0.68
2022-08-05T11:29:12.667Z,1.30
2022-08-05T11:31:57.072Z,0.98
2022-08-05T11:34:51.739Z,3.13
2022-08-05T11:38:31.029Z,1.38
2022-08-05T11:41:54.443Z,1.75
2022-08-05T11:44:40.182Z,1.90
2022-08-05T11:47:14.052Z,0.90
2022-08-05T11:49:50.992Z,2.30
2022-08-05T11:52:29.310Z,1.45
2022-08-05T11:54:58.140Z,0.80
2022-08-05T11:57:30.674Z,1.58
2022-08-05T12:00:25.085Z,1.90
2022-08-05T12:02:54.199Z,3.22
2022-08-05T12:05:32.268Z,0.52
2022-08-05T12:08:10.855Z,0.98
2022-08-05T12:10:45.280Z,1.40
2022-08-05T12:13:16.779Z,0.63
2022-08-05T12:15:49.819Z,1.02
2022-08-05T12:18:32.750Z,1.45
2022-08-05T12:21:18.222Z,0.88
2022-08-05T12:24:11.367Z,1.48
2022-08-05T12:26:57.462Z,0.68
2022-08-05T12:29:27.116Z,0.57
2022-08-05T12:32:01.875Z,2.17
2022-08-05T12:34:31.377Z,0.57
2022-08-05T12:37:00.720Z,4.80
2022-08-05T12:39:34.575Z,0.43
2022-08-05T12:42:09.099Z,1.38
2022-08-05T12:44:41.368Z,3.92
2022-08-05T12:47:12.517Z,2.20
2022-08-05T12:50:03.483Z,0.30
2022-08-05T12:52:38.802Z,1.98
2022-08-05T12:55:25.142Z,0.57
2022-08-05T12:58:38.175Z,0.47
2022-08-05T13:02:01.595Z,1.05
2022-08-05T13:03:41.787Z,1.35
2022-08-05T13:06:19.813Z,0.75
2022-08-05T13:08:52.300Z,5.30
2022-08-05T13:12:01.617Z,1.85
2022-08-05T13:14:25.071Z,2.15
2022-08-05T13:17:09.237Z,0.90
2022-08-05T13:19:51.759Z,0.30
2022-08-05T13:22:28.484Z,0.30
2022-08-05T13:25:00.975Z,0.38
2022-08-05T13:27:39.668Z,2.72
2022-08-05T13:30:32.879Z,0.52
2022-08-05T13:32:57.394Z,0.57
2022-08-05T13:35:43.269Z,0.57
2022-08-05T13:40:59.025Z,0.80
2022-08-05T13:43:44.886Z,1.60
2022-08-05T13:48:57.793Z,3.50
2022-08-05T13:51:29.931Z,1.60
2022-08-05T13:54:12.698Z,1.13
2022-08-05T13:56:45.443Z,0.85
2022-08-05T13:59:24.286Z,3.63
2022-08-05T14:01:59.528Z,1.67
2022-08-05T14:04:51.615Z,2.28
2022-08-05T14:07:56.853Z,0.35
2022-08-05T14:10:28.015Z,0.65
2022-08-05T14:12:57.165Z,0.63
2022-08-05T14:16:07.195Z,0.50
2022-08-05T14:18:14.907Z,0.65
2022-08-05T14:20:47.301Z,0.20
2022-08-05T14:23:23.335Z,3.90
2022-08-05T14:25:54.105Z,0.40
2022-08-05T14:28:26.548Z,1.10
2022-08-05T14:30:54.592Z,1.23
2022-08-05T14:33:23.046Z,0.40
2022-08-05T14:35:51.810Z,1.08
2022-08-05T14:38:31.688Z,0.57
2022-08-05T14:41:01.836Z,0.73
2022-08-05T14:43:58.833Z,0.43
2022-08-05T14:46:20.375Z,2.42
2022-08-05T14:48:49.143Z,0.77
2022-08-05T14:51:17.653Z,0.90
2022-08-05T14:53:45.347Z,0.60
2022-08-05T14:56:31.887Z,1.55
2022-08-05T14:58:58.699Z,4.95
2022-08-05T15:01:47.112Z,1.00
2022-08-05T15:04:12.390Z,0.80
2022-08-05T15:06:40.550Z,0.93
2022-08-05T15:09:07.372Z,0.75
2022-08-05T15:11:51.372Z,0.80
2022-08-05T15:14:35.566Z,1.83
2022-08-05T15:17:44.302Z,0.88
2022-08-05T15:19:56.974Z,2.13
2022-08-05T15:22:27.309Z,6.68
2022-08-05T15:24:55.944Z,0.95
2022-08-05T15:27:22.472Z,0.70
2022-08-05T15:29:56.665Z,11.27
2022-08-05T15:32:27.272Z,5.78
2022-08-05T15:34:56.595Z,2.45
2022-08-05T15:38:08.623Z,0.98
2022-08-05T15:41:03.072Z,2.22
2022-08-05T15:43:09.138Z,2.58
2022-08-05T15:45:45.974Z,1.30
2022-08-05T15:48:14.297Z,1.25
2022-08-05T15:50:41.664Z,2.47
2022-08-05T15:53:12.506Z,1.80
2022-08-05T15:56:03.110Z,3.90
2022-08-05T15:58:28.190Z,2.38
2022-08-05T16:01:16.716Z,0.55
2022-08-05T16:03:43.123Z,0.55
2022-08-05T16:06:11.221Z,3.67
2022-08-05T16:08:38.610Z,0.98
2022-08-05T16:11:07.306Z,1.77
2022-08-05T16:13:35.074Z,2.10
2022-08-05T16:16:05.762Z,1.05
2022-08-05T16:18:35.627Z,1.02
2022-08-05T16:21:18.840Z,0.65
2022-08-05T16:23:54.172Z,1.90
2022-08-05T16:26:26.571Z,0.57
2022-08-05T16:28:55.284Z,0.63
2022-08-05T16:31:22.357Z,0.70
2022-08-05T16:33:50.758Z,2.15
2022-08-05T16:36:20.409Z,0.75
2022-08-05T16:38:55.054Z,3.60
2022-08-05T16:42:27.732Z,3.35
2022-08-05T16:44:15.638Z,1.35
2022-08-05T16:46:55.744Z,3.17
2022-08-05T16:49:23.431Z,0.93
2022-08-05T16:51:51.365Z,1.67
2022-08-05T16:54:28.671Z,0.65
2022-08-05T16:56:58.712Z,4.05
2022-08-05T16:59:25.486Z,2.72
2022-08-05T17:01:55.946Z,1.63
2022-08-05T17:04:27.644Z,0.85
2022-08-05T17:07:01.218Z,1.13
2022-08-05T17:09:29.931Z,2.28
2022-08-05T17:11:59.454Z,0.57
2022-08-05T17:14:37.422Z,3.50
2022-08-05T17:17:06.746Z,0.57
2022-08-05T17:19:43.837Z,0.95
2022-08-05T17:22:17.902Z,2.08
2022-08-05T17:24:56.963Z,1.67
2022-08-05T17:27:34.460Z,3.45
2022-08-05T17:30:02.692Z,1.02
2022-08-05T17:32:30.186Z,1.92
2022-08-05T17:35:00.573Z,2.17
2022-08-05T17:37:41.700Z,0.57
2022-08-05T17:40:14.905Z,1.45
2022-08-05T17:42:51.281Z,2.00
2022-08-05T17:45:22.623Z,2.47
2022-08-05T17:47:55.386Z,2.38
2022-08-05T17:50:30.343Z,0.80
2022-08-05T17:53:05.255Z,1.25
2022-08-05T17:55:37.479Z,3.40
2022-08-05T17:58:06.873Z,1.17
2022-08-05T18:00:34.562Z,0.75
2022-08-05T18:03:02.177Z,0.75
2022-08-05T18:05:35.261Z,0.47
2022-08-05T18:08:02.947Z,1.25
2022-08-05T18:10:32.251Z,0.68
2022-08-05T18:13:00.625Z,0.70
2022-08-05T18:15:34.094Z,2.75
2022-08-05T18:18:05.740Z,2.35
2022-08-05T18:25:39.195Z,2.38
2022-08-05T18:28:09.540Z,0.77
2022-08-05T18:30:39.118Z,5.63
2022-08-05T18:33:07.448Z,5.90
2022-08-05T18:35:59.770Z,3.20
2022-08-05T18:38:25.774Z,2.78
2022-08-05T18:41:56.033Z,0.50
2022-08-05T18:43:43.280Z,0.98
2022-08-05T18:46:19.812Z,0.65
2022-08-05T18:48:47.966Z,1.20
2022-08-05T18:52:04.447Z,0.50
2022-08-05T18:54:25.312Z,1.80
2022-08-05T18:56:52.197Z,0.50
2022-08-05T18:59:43.960Z,2.20
2022-08-05T19:02:11.307Z,3.90
2022-08-05T19:05:03.220Z,0.68
2022-08-05T19:07:45.947Z,1.80
2022-08-05T19:10:17.313Z,1.13
2022-08-05T19:12:46.057Z,2.30
2022-08-05T19:15:56.694Z,2.95
2022-08-05T19:18:09.455Z,2.17
2022-08-05T19:20:41.805Z,2.28
2022-08-05T19:24:04.543Z,2.80
2022-08-05T19:26:03.177Z,2.28
2022-08-05T19:28:31.224Z,1.83
2022-08-05T19:31:00.952Z,3.63
2022-08-05T19:33:35.491Z,4.53
2022-08-05T19:36:06.870Z,1.75
2022-08-05T19:38:36.923Z,1.92
2022-08-05T19:41:07.230Z,1.20
2022-08-05T19:44:06.629Z,1.70
2022-08-05T19:46:29.406Z,1.40
2022-08-05T19:49:03.548Z,1.90
2022-08-05T19:52:05.364Z,1.55
2022-08-05T19:54:27.197Z,2.80
2022-08-05T19:57:06.412Z,1.92
2022-08-05T20:00:00.674Z,4.57
2022-08-05T20:02:22.705Z,2.63
2022-08-05T20:04:49.709Z,3.30
2022-08-05T20:07:47.008Z,1.35
2022-08-05T20:10:11.741Z,1.17
2022-08-05T20:12:48.416Z,1.05
2022-08-05T20:15:48.543Z,0.93
2022-08-05T20:18:10.689Z,3.58
2022-08-05T20:20:55.054Z,1.25
2022-08-05T20:23:23.514Z,1.77
2022-08-05T20:25:52.222Z,3.88
2022-08-05T20:28:19.140Z,4.00
2022-08-05T20:30:45.760Z,0.75
2022-08-05T20:33:14.517Z,2.85
2022-08-05T20:35:45.653Z,3.97
2022-08-05T20:38:19.987Z,2.92
2022-08-05T20:40:53.229Z,1.65
2022-08-05T20:43:33.348Z,0.60
2022-08-05T20:46:10.202Z,0.50
2022-08-05T20:48:39.173Z,1.88
2022-08-05T20:51:08.930Z,1.48
2022-08-05T20:53:36.569Z,1.50
2022-08-05T20:56:08.694Z,2.72
2022-08-05T20:58:36.045Z,0.60
2022-08-05T21:01:03.900Z,1.65
2022-08-05T21:03:34.719Z,0.82
2022-08-05T21:06:01.769Z,1.38
2022-08-05T21:08:35.941Z,1.73
2022-08-05T21:11:12.142Z,2.70
2022-08-05T21:13:47.990Z,1.20
2022-08-05T21:16:29.090Z,1.67
2022-08-05T21:18:59.821Z,0.80
2022-08-05T21:21:39.654Z,0.75
2022-08-05T21:24:12.800Z,1.08
2022-08-05T21:26:39.644Z,1.75
2022-08-05T21:29:12.586Z,1.85
2022-08-05T21:31:43.457Z,2.45
2022-08-05T21:34:11.129Z,2.92
2022-08-05T21:36:38.254Z,3.63
2022-08-05T21:39:04.913Z,2.08
2022-08-05T21:41:34.266Z,1.27
2022-08-05T21:44:04.469Z,1.95
2022-08-05T21:46:34.345Z,0.75
2022-08-05T21:49:01.790Z,1.55
2022-08-05T21:52:22.735Z,1.35
2022-08-05T21:54:15.024Z,2.50
2022-08-05T21:56:44.666Z,5.63
2022-08-05T21:59:23.893Z,0.77
2022-08-05T22:01:54.501Z,4.55
2022-08-05T22:04:25.400Z,1.02
2022-08-05T22:06:52.688Z,2.92
2022-08-05T22:09:21.088Z,1.10
2022-08-05T22:11:48.431Z,1.02
2022-08-05T22:14:35.824Z,2.40
2022-08-05T22:17:04.954Z,1.63
2022-08-05T22:20:02.879Z,0.93
2022-08-05T22:22:26.593Z,0.98
2022-08-05T22:25:21.055Z,3.90
2022-08-05T22:28:08.999Z,2.20
2022-08-05T22:30:56.462Z,1.08
2022-08-05T22:33:58.635Z,1.52
2022-08-05T22:36:14.190Z,1.10
2022-08-05T22:38:42.803Z,3.53
2022-08-05T22:41:10.266Z,3.92
2022-08-05T22:43:37.971Z,0.70
2022-08-05T22:46:11.990Z,1.17
2022-08-05T22:48:41.334Z,2.70
2022-08-05T22:51:08.464Z,2.53
2022-08-05T22:53:42.773Z,1.15
2022-08-05T22:56:17.674Z,1.00
2022-08-05T22:58:58.205Z,0.90
2022-08-05T23:02:04.218Z,0.85
2022-08-05T23:04:13.613Z,3.42
2022-08-05T23:06:41.155Z,1.85
2022-08-05T23:09:27.121Z,1.15
2022-08-05T23:11:55.782Z,3.03
2022-08-05T23:14:32.160Z,1.73
2022-08-05T23:17:24.604Z,0.85
2022-08-05T23:20:02.241Z,2.15
2022-08-05T23:22:29.685Z,2.03
2022-08-05T23:24:57.595Z,1.38
2022-08-05T23:27:28.900Z,1.13
2022-08-05T23:30:10.715Z,1.02
2022-08-05T23:32:37.615Z,3.15
2022-08-05T23:35:07.769Z,0.88
2022-08-05T23:37:36.738Z,1.05
2022-08-05T23:40:07.857Z,0.75
2022-08-05T23:42:37.381Z,1.00
2022-08-05T23:45:13.851Z,1.63
2022-08-05T23:47:47.690Z,2.40
2022-08-05T23:50:14.830Z,2.28
2022-08-05T23:52:49.422Z,1.23
2022-08-05T23:55:16.958Z,4.82
2022-08-05T23:57:44.135Z,2.88
